Time;durP1;ratioP1;P1;durP2;ratioP2;P2;SDS_P1;SDS_P2;PMS_P1;PMS_P2;Temp;Humidity;BMP_temperature;BMP_pressure;BME280_temperature;BME280_humidity;BME280_pressure;Samples;Min_cycle;Max_cycle;Signal;HPM_P1;HPM_P2
2021/03/26 00:00:50;;;;;;;176.13;76.20;;;153.60;1510.40;;;;;;5071985;28;20486;-65
2021/03/26 00:03:23;;;;;;;213.70;84.13;;;128.90;1510.40;;;;;;5074505;28;20044;-64
2021/03/26 00:05:53;;;;;;;224.13;86.32;;;153.60;1510.40;;;;;;5073894;28;20108;-65
2021/03/26 00:08:19;;;;;;;177.63;74.75;;;128.90;1484.80;;;;;;5073775;28;20038;-63
2021/03/26 00:10:45;;;;;;;143.70;61.88;;;153.60;1484.80;;;;;;5073475;28;20027;-68
2021/03/26 00:13:11;;;;;;;131.23;59.83;;;128.90;1484.80;;;;;;5073362;28;20033;-67
2021/03/26 00:15:37;;;;;;;122.47;56.85;;;128.80;1484.80;;;;;;5073765;28;20097;-67
2021/03/26 00:18:04;;;;;;;157.43;64.68;;;128.90;1484.80;;;;;;5071295;28;20413;-65
2021/03/26 00:20:30;;;;;;;152.18;61.75;;;128.80;1484.80;;;;;;5073519;28;20017;-69
2021/03/26 00:22:56;;;;;;;142.52;57.70;;;128.80;1484.80;;;;;;5072928;28;20024;-67
2021/03/26 00:25:22;;;;;;;118.82;52.45;;;128.70;1484.80;;;;;;5073698;28;20031;-66
2021/03/26 00:27:48;;;;;;;235.90;80.68;;;128.70;1484.80;;;;;;5073049;28;20421;-67
2021/03/26 00:30:16;;;;;;;309.23;100.20;;;128.70;1484.80;;;;;;5073406;28;20020;-67
2021/03/26 00:32:42;;;;;;;312.08;104.40;;;128.70;1510.40;;;;;;5073293;28;20469;-64
2021/03/26 00:35:11;;;;;;;284.00;96.05;;;128.60;1510.40;;;;;;5072825;28;20037;-70
2021/03/26 00:37:37;;;;;;;243.35;86.95;;;128.60;1536.00;;;;;;5073546;28;20437;-69
2021/03/26 00:40:05;;;;;;;222.65;80.70;;;128.60;1510.40;;;;;;5073840;28;20076;-69
2021/03/26 00:42:31;;;;;;;206.05;77.30;;;128.60;1510.40;;;;;;5073707;28;20108;-69
2021/03/26 00:44:56;;;;;;;202.40;77.60;;;128.50;1510.40;;;;;;5073697;28;20048;-70
2021/03/26 00:47:22;;;;;;;198.30;74.53;;;128.50;1510.40;;;;;;5073945;28;20373;-70
2021/03/26 00:49:48;;;;;;;198.00;73.80;;;128.50;1510.40;;;;;;5073832;28;20017;-69
2021/03/26 00:52:13;;;;;;;170.60;67.55;;;128.50;1536.00;;;;;;5073715;28;20024;-69
2021/03/26 00:54:39;;;;;;;180.43;66.25;;;128.50;1510.40;;;;;;5073560;28;20374;-70
2021/03/26 00:57:05;;;;;;;167.45;67.13;;;128.50;1510.40;;;;;;5073707;28;20021;-68
2021/03/26 00:59:31;;;;;;;158.13;62.25;;;128.50;1510.40;;;;;;5073687;28;20025;-70
2021/03/26 01:01:56;;;;;;;145.50;62.42;;;128.60;1510.40;;;;;;5073420;28;20028;-69
2021/03/26 01:04:23;;;;;;;129.45;56.42;;;128.60;1510.40;;;;;;5073748;28;20256;-69
2021/03/26 01:06:48;;;;;;;149.90;57.05;;;128.60;1510.40;;;;;;5074270;28;20024;-69
2021/03/26 01:09:14;;;;;;;148.48;58.30;;;128.60;1536.00;;;;;;5077881;28;20035;-70
2021/03/26 01:11:40;;;;;;;141.73;57.15;;;128.60;1536.00;;;;;;5077872;28;20025;-70
2021/03/26 01:14:19;;;;;;;125.97;54.33;;;128.60;1510.40;;;;;;5077476;28;20047;-67
2021/03/26 01:16:45;;;;;;;107.55;47.95;;;128.60;1510.40;;;;;;5077909;28;20052;-69
2021/03/26 01:19:13;;;;;;;102.72;47.67;;;128.60;1536.00;;;;;;5077630;28;20047;-71
2021/03/26 01:21:40;;;;;;;97.70;46.80;;;128.60;1536.00;;;;;;5077583;28;20070;-71
2021/03/26 01:24:08;;;;;;;102.65;47.65;;;128.60;1536.00;;;;;;5077640;28;20078;-71
2021/03/26 01:26:34;;;;;;;103.47;46.15;;;128.50;1536.00;;;;;;5077169;28;20029;-71
2021/03/26 01:29:01;;;;;;;99.43;46.85;;;128.50;1536.00;;;;;;5077374;28;20371;-65
2021/03/26 01:31:28;;;;;;;93.40;43.97;;;128.50;1536.00;;;;;;5077370;28;20458;-68
2021/03/26 01:33:54;;;;;;;95.40;44.08;;;128.60;1536.00;;;;;;5077269;28;20029;-69
2021/03/26 01:36:20;;;;;;;84.03;39.50;;;128.50;1536.00;;;;;;5077339;28;20025;-67
2021/03/26 01:38:46;;;;;;;78.78;38.92;;;128.50;1536.00;;;;;;5076878;28;20060;-67
2021/03/26 01:41:37;;;;;;;76.63;39.03;;;128.50;1561.60;;;;;;5077181;28;20021;-67
2021/03/26 01:44:04;;;;;;;73.95;38.88;;;128.40;1561.60;;;;;;4976121;28;20058;-65
2021/03/26 01:46:30;;;;;;;77.63;39.53;;;128.40;1561.60;;;;;;4976288;28;20428;-66
2021/03/26 01:48:59;;;;;;;87.40;43.50;;;128.40;1536.00;;;;;;4976176;28;20042;-66
2021/03/26 01:51:44;;;;;;;98.10;45.80;;;128.40;1536.00;;;;;;4976046;28;20495;-68
2021/03/26 01:54:14;;;;;;;92.28;44.53;;;128.50;1561.60;;;;;;4975923;28;20098;-69
2021/03/26 01:56:40;;;;;;;91.10;44.33;;;128.40;1561.60;;;;;;4976143;28;20019;-70
2021/03/26 01:59:07;;;;;;;93.72;45.67;;;128.40;1561.60;;;;;;4975661;28;20037;-69
2021/03/26 02:01:41;;;;;;;84.15;41.83;;;128.40;1561.60;;;;;;4975957;28;20030;-69
2021/03/26 02:04:07;;;;;;;80.75;40.97;;;128.40;1561.60;;;;;;4975839;28;20034;-67
2021/03/26 02:06:42;;;;;;;75.22;38.88;;;128.40;1561.60;;;;;;4975817;28;20037;-69
2021/03/26 02:09:19;;;;;;;71.55;36.80;;;128.40;1561.60;;;;;;4975984;28;20034;-70
2021/03/26 02:11:53;;;;;;;77.32;36.00;;;128.40;1536.00;;;;;;4975963;28;20525;-70
2021/03/26 02:14:29;;;;;;;;;;;128.40;1536.00;;;;;;4975865;28;20045;-69
2021/03/26 02:16:54;;;;;;;75.88;37.22;;;128.40;1536.00;;;;;;4975612;28;19906;-70
2021/03/26 02:19:23;;;;;;;82.13;37.47;;;128.30;1561.60;;;;;;4974883;28;20042;-69
2021/03/26 02:21:50;;;;;;;85.28;42.78;;;128.20;1561.60;;;;;;5061007;28;20485;-69
2021/03/26 02:24:16;;;;;;;89.35;41.55;;;128.20;1561.60;;;;;;5076441;28;20052;-69
2021/03/26 02:26:47;;;;;;;94.22;45.65;;;128.20;1561.60;;;;;;5076374;28;20454;-69
2021/03/26 02:29:23;;;;;;;85.30;45.55;;;128.20;1561.60;;;;;;5076358;28;20028;-70
2021/03/26 02:31:52;;;;;;;91.35;45.25;;;128.20;1561.60;;;;;;5076343;28;20044;-69
2021/03/26 02:34:19;;;;;;;89.80;47.10;;;128.10;1587.20;;;;;;5076293;28;20024;-70
2021/03/26 02:36:48;;;;;;;102.88;48.78;;;128.10;1587.20;;;;;;5076055;28;20024;-69
2021/03/26 02:39:43;;;;;;;94.68;46.80;;;128.10;1587.20;;;;;;5076125;28;20024;-68
2021/03/26 02:42:42;;;;;;;89.50;42.65;;;128.10;1587.20;;;;;;5075533;28;20029;-69
2021/03/26 02:45:17;;;;;;;82.78;41.45;;;128.10;1587.20;;;;;;5070982;28;20496;-69
2021/03/26 02:47:50;;;;;;;87.75;42.22;;;128.10;1587.20;;;;;;5075748;28;20029;-69
2021/03/26 02:50:23;;;;;;;94.50;43.25;;;128.10;1587.20;;;;;;5075732;28;20052;-69
2021/03/26 02:53:09;;;;;;;88.05;42.85;;;128.10;1587.20;;;;;;5075893;28;20070;-70
2021/03/26 02:55:43;;;;;;;85.82;43.53;;;128.10;1587.20;;;;;;5075671;28;20036;-68
2021/03/26 02:58:24;;;;;;;89.72;45.72;;;128.10;1587.20;;;;;;5075731;28;20071;-69
2021/03/26 03:00:57;;;;;;;99.15;48.65;;;128.10;1587.20;;;;;;5075514;28;20036;-69
2021/03/26 03:03:27;;;;;;;108.45;53.35;;;128.00;1587.20;;;;;;5075691;28;20036;-69
2021/03/26 03:06:07;;;;;;;105.43;51.92;;;128.10;1587.20;;;;;;5075719;28;20433;-69
2021/03/26 03:08:35;;;;;;;112.18;54.60;;;128.00;1587.20;;;;;;5075557;28;20375;-69
2021/03/26 03:11:08;;;;;;;124.20;58.58;;;128.10;1587.20;;;;;;5075572;28;20033;-68
2021/03/26 03:13:55;;;;;;;118.13;55.22;;;128.00;1587.20;;;;;;5075318;28;20516;-69
2021/03/26 03:16:24;;;;;;;103.22;51.65;;;128.00;1587.20;;;;;;5075363;28;20035;-69
2021/03/26 03:19:28;;;;;;;85.15;45.30;;;128.00;1612.80;;;;;;5075482;28;20013;-69
2021/03/26 03:22:05;;;;;;;78.30;41.83;;;128.00;1612.80;;;;;;4974442;28;20397;-69
2021/03/26 03:24:42;;;;;;;86.18;42.30;;;128.00;1587.20;;;;;;4974354;28;20035;-69
2021/03/26 03:27:10;;;;;;;81.40;44.70;;;128.00;1612.80;;;;;;4974467;28;20062;-69
2021/03/26 03:29:51;;;;;;;98.53;51.58;;;128.00;1612.80;;;;;;4973984;28;20064;-69
2021/03/26 03:32:55;;;;;;;99.85;48.92;;;128.00;1612.80;;;;;;4956900;28;20062;-66
2021/03/26 03:35:30;;;;;;;100.32;50.17;;;128.00;1612.80;;;;;;4974214;28;20035;-68
2021/03/26 03:38:13;;;;;;;107.65;51.03;;;128.00;1612.80;;;;;;4973996;28;20038;-67
2021/03/26 03:40:52;;;;;;;109.32;54.88;;;103.30;1587.20;;;;;;4974099;28;20019;-68
2021/03/26 03:43:33;;;;;;;113.90;57.60;;;103.30;1587.20;;;;;;4973930;28;20047;-67
2021/03/26 03:46:24;;;;;;;137.90;61.53;;;103.30;1587.20;;;;;;4974148;28;20390;-70
2021/03/26 03:49:05;;;;;;;126.85;60.17;;;103.30;1587.20;;;;;;4879052;29;20097;-68
2021/03/26 03:51:43;;;;;;;128.60;62.42;;;103.20;1587.20;;;;;;4879017;29;20120;-68
2021/03/26 03:54:26;;;;;;;132.63;60.50;;;103.20;1587.20;;;;;;4878792;29;20067;-69
2021/03/26 03:57:01;;;;;;;126.25;62.40;;;103.20;1587.20;;;;;;4904614;28;20086;-69
2021/03/26 04:00:06;;;;;;;127.35;61.88;;;103.20;1612.80;;;;;;4957475;28;20086;-69
2021/03/26 04:02:44;;;;;;;126.72;61.63;;;103.20;1612.80;;;;;;4973775;28;20512;-69
2021/03/26 04:05:10;;;;;;;124.97;63.53;;;103.20;1612.80;;;;;;4973847;28;20452;-68
2021/03/26 04:07:52;;;;;;;125.10;64.22;;;103.20;1612.80;;;;;;4973563;28;20039;-68
2021/03/26 04:10:18;;;;;;;132.35;62.90;;;103.10;1612.80;;;;;;4973545;28;20031;-68
2021/03/26 04:12:49;;;;;;;126.53;62.38;;;103.10;1638.40;;;;;;4973137;28;20070;-69
2021/03/26 04:15:26;;;;;;;136.65;62.25;;;103.10;1638.40;;;;;;4973323;28;20046;-68
2021/03/26 04:18:01;;;;;;;150.70;69.43;;;103.10;1638.40;;;;;;4973645;28;20023;-68
2021/03/26 04:20:33;;;;;;;156.30;73.20;;;103.10;1638.40;;;;;;4973480;28;20126;-68
2021/03/26 04:23:07;;;;;;;172.63;78.00;;;103.10;1638.40;;;;;;4973384;28;20074;-68
2021/03/26 04:25:39;;;;;;;169.20;79.47;;;103.00;1638.40;;;;;;5005773;28;20121;-69
2021/03/26 04:28:15;;;;;;;168.25;78.55;;;103.00;1638.40;;;;;;5074129;28;20048;-69
2021/03/26 04:30:45;;;;;;;162.30;76.65;;;103.00;1638.40;;;;;;5074333;28;20082;-68
2021/03/26 04:33:11;;;;;;;168.93;82.30;;;103.00;1664.00;;;;;;5055676;28;20029;-69
2021/03/26 04:35:37;;;;;;;167.73;79.50;;;103.00;1664.00;;;;;;5073805;28;20089;-69
2021/03/26 04:38:14;;;;;;;179.80;83.25;;;103.00;1638.40;;;;;;5073604;28;20061;-69
2021/03/26 04:40:45;;;;;;;190.43;88.03;;;103.00;1638.40;;;;;;5073921;28;20047;-72
2021/03/26 04:43:19;;;;;;;211.82;94.97;;;103.00;1664.00;;;;;;5073268;28;20021;-73
2021/03/26 04:45:51;;;;;;;;;;;103.00;1664.00;;;;;;5074266;28;20035;-73
2021/03/26 04:48:19;;;;;;;196.63;88.28;;;103.00;1664.00;;;;;;5073708;28;19905;-72
2021/03/26 04:51:00;;;;;;;187.05;87.88;;;103.00;1689.60;;;;;;5073919;28;20104;-69
2021/03/26 04:53:59;;;;;;;187.93;85.40;;;103.00;1689.60;;;;;;5073855;28;20028;-69
2021/03/26 04:56:29;;;;;;;167.18;78.88;;;103.00;1689.60;;;;;;4973007;28;20547;-69
2021/03/26 04:59:02;;;;;;;162.80;79.13;;;103.00;1715.20;;;;;;4972851;28;20031;-69
2021/03/26 05:01:31;;;;;;;145.07;70.82;;;103.00;1715.20;;;;;;4972757;28;20039;-69
2021/03/26 05:04:06;;;;;;;133.63;66.82;;;103.10;1689.60;;;;;;4972667;28;20166;-69
2021/03/26 05:06:37;;;;;;;126.35;61.65;;;103.10;1689.60;;;;;;4972742;28;20031;-71
2021/03/26 05:09:11;;;;;;;110.80;55.17;;;103.10;1689.60;;;;;;4972720;28;20381;-70
2021/03/26 05:11:42;;;;;;;117.05;54.38;;;103.10;1689.60;;;;;;4972790;28;20086;-69
2021/03/26 05:14:27;;;;;;;99.68;50.67;;;103.20;1689.60;;;;;;4972548;28;20031;-69
2021/03/26 05:17:00;;;;;;;102.10;52.03;;;103.20;1689.60;;;;;;4972592;28;20050;-70
2021/03/26 05:19:59;;;;;;;95.20;49.80;;;103.30;1689.60;;;;;;4972527;28;20508;-70
2021/03/26 05:22:59;;;;;;;96.60;50.58;;;103.30;1689.60;;;;;;4972869;28;20125;-69
2021/03/26 05:25:52;;;;;;;80.40;42.15;;;128.00;1715.20;;;;;;4972621;28;20058;-70
2021/03/26 05:28:33;;;;;;;74.20;39.50;;;128.00;1740.80;;;;;;4968986;28;20042;-68
2021/03/26 05:31:10;;;;;;;78.45;40.05;;;128.00;1715.20;;;;;;4972711;28;20071;-68
2021/03/26 05:33:41;;;;;;;70.32;37.05;;;128.00;1740.80;;;;;;5038104;28;20033;-69
2021/03/26 05:36:10;;;;;;;65.13;34.60;;;128.10;1740.80;;;;;;5093522;28;20060;-63
2021/03/26 05:38:41;;;;;;;66.35;34.55;;;128.20;1740.80;;;;;;5093351;28;20489;-70
2021/03/26 05:41:35;;;;;;;68.15;34.55;;;128.30;1740.80;;;;;;5093384;28;20441;-69
2021/03/26 05:44:16;;;;;;;60.55;32.15;;;128.50;1715.20;;;;;;5030977;28;20040;-69
2021/03/26 05:46:50;;;;;;;62.60;30.30;;;128.50;1715.20;;;;;;5031115;28;20100;-69
2021/03/26 05:49:30;;;;;;;57.00;30.27;;;128.70;1689.60;;;;;;5031365;28;20034;-69
2021/03/26 05:52:17;;;;;;;61.08;30.95;;;128.90;1664.00;;;;;;5031190;28;20160;-69
2021/03/26 05:55:00;;;;;;;54.60;29.83;;;153.70;1638.40;;;;;;5016560;28;20026;-69
2021/03/26 05:57:42;;;;;;;54.78;28.52;;;153.90;1638.40;;;;;;5018329;28;20088;-70
2021/03/26 06:00:26;;;;;;;56.72;28.90;;;154.10;1612.80;;;;;;5034755;28;20057;-69
2021/03/26 06:03:00;;;;;;;55.25;31.42;;;154.30;1612.80;;;;;;5034822;28;20497;-69
2021/03/26 06:05:47;;;;;;;78.22;40.58;;;154.50;1587.20;;;;;;5034656;28;20467;-69
2021/03/26 06:08:51;;;;;;;72.55;38.47;;;179.20;1587.20;;;;;;5034628;28;20438;-70
2021/03/26 06:11:27;;;;;;;83.45;42.28;;;179.40;1561.60;;;;;;4956516;29;20126;-70
2021/03/26 06:14:23;;;;;;;78.32;43.75;;;179.60;1561.60;;;;;;4956357;29;20047;-65
2021/03/26 06:17:05;;;;;;;77.28;42.10;;;179.80;1536.00;;;;;;4956238;29;20561;-69
2021/03/26 06:19:48;;;;;;;60.92;35.65;;;180.00;1536.00;;;;;;4956353;29;20079;-69
2021/03/26 06:22:20;;;;;;;77.18;38.88;;;204.80;1510.40;;;;;;5014958;28;20025;-70
2021/03/26 06:25:17;;;;;;;56.70;33.72;;;205.00;1484.80;;;;;;5014351;28;20109;-70
2021/03/26 06:28:12;;;;;;;51.55;30.33;;;205.30;1459.20;;;;;;5014972;28;20528;-70
2021/03/26 06:30:44;;;;;;;;;;;205.50;1433.60;;;;;;5014811;28;20168;-70
2021/03/26 06:33:40;;;;;;;52.92;29.10;;;205.70;1408.00;;;;;;5014245;28;20024;-70
2021/03/26 06:36:33;;;;;;;46.97;26.80;;;230.60;1382.40;;;;;;5014348;28;20130;-70
2021/03/26 06:39:19;;;;;;;46.67;26.73;;;230.80;1382.40;;;;;;5014165;28;20061;-69
2021/03/26 06:42:06;;;;;;;46.45;24.48;;;231.00;1356.80;;;;;;5014286;28;20026;-70
2021/03/26 06:44:53;;;;;;;45.25;24.17;;;231.20;1331.20;;;;;;5014018;28;20041;-69
2021/03/26 06:47:35;;;;;;;51.00;27.35;;;256.10;1280.00;;;;;;5073387;28;20068;-64
2021/03/26 06:50:09;;;;;;;54.17;28.35;;;256.40;1254.40;;;;;;5096245;28;20041;-70
2021/03/26 06:53:04;;;;;;;44.03;24.55;;;256.70;1254.40;;;;;;5096064;28;20024;-68
2021/03/26 06:55:51;;;;;;;50.83;25.75;;;281.60;1254.40;;;;;;5095959;28;20063;-69
2021/03/26 06:58:49;;;;;;;63.30;24.40;;;281.90;1280.00;;;;;;5096024;28;20362;-67
2021/03/26 07:01:26;;;;;;;64.63;24.13;;;282.30;1228.80;;;;;;5096019;28;20059;-65
2021/03/26 07:04:15;;;;;;;38.95;19.75;;;307.20;1203.20;;;;;;5095923;28;20035;-62
2021/03/26 07:07:09;;;;;;;40.97;18.70;;;307.50;1177.60;;;;;;5095747;28;20074;-62
2021/03/26 07:09:49;;;;;;;47.45;28.23;;;307.70;1152.00;;;;;;5077226;28;20028;-63
2021/03/26 07:12:33;;;;;;;52.60;28.95;;;308.00;1126.40;;;;;;5095290;28;20020;-69
2021/03/26 07:15:08;;;;;;;49.90;21.90;;;332.80;1126.40;;;;;;5095690;28;20032;-66
2021/03/26 07:17:59;;;;;;;54.95;20.95;;;333.00;1100.80;;;;;;5095866;28;20381;-63
2021/03/26 07:21:00;;;;;;;232.35;100.15;;;333.30;1100.80;;;;;;5095681;28;20035;-63
2021/03/26 07:24:00;;;;;;;274.40;133.13;;;333.50;1075.20;;;;;;5095138;28;20099;-69
2021/03/26 07:26:39;;;;;;;234.57;118.45;;;333.70;1049.60;;;;;;5095295;28;20378;-69
2021/03/26 07:29:51;;;;;;;136.73;69.43;;;358.50;1024.00;;;;;;5095327;28;20031;-70
2021/03/26 07:32:50;;;;;;;127.10;39.35;;;358.80;998.40;;;;;;5095350;28;20024;-63
2021/03/26 07:35:31;;;;;;;65.07;22.60;;;359.00;998.40;;;;;;5095367;28;20355;-62
2021/03/26 07:38:16;;;;;;;45.05;22.75;;;359.30;972.80;;;;;;5095050;28;20085;-69
2021/03/26 07:40:47;;;;;;;91.32;48.22;;;384.10;972.80;;;;;;5095101;28;20026;-63
2021/03/26 07:43:34;;;;;;;163.35;43.03;;;384.40;947.20;;;;;;5095205;28;20027;-69
2021/03/26 07:46:12;;;;;;;108.53;30.65;;;384.70;921.60;;;;;;5094996;28;20032;-65
2021/03/26 07:49:01;;;;;;;297.95;40.15;;;384.90;896.00;;;;;;5095173;28;20095;-70
2021/03/26 07:51:38;;;;;;;217.25;33.30;;;409.70;921.60;;;;;;5095169;28;20362;-66
2021/03/26 07:54:19;;;;;;;97.07;23.55;;;409.90;896.00;;;;;;5095033;28;20035;-72
2021/03/26 07:57:24;;;;;;;841.50;86.90;;;410.10;896.00;;;;;;5095022;28;20050;-64
2021/03/26 08:00:11;;;;;;;845.15;116.28;;;410.30;896.00;;;;;;5094896;28;20024;-71
2021/03/26 08:02:46;;;;;;;571.33;77.00;;;435.20;921.60;;;;;;5094756;28;20028;-68
2021/03/26 08:05:30;;;;;;;312.63;47.22;;;435.30;896.00;;;;;;5094819;28;20024;-64
2021/03/26 08:08:33;;;;;;;702.42;83.97;;;435.50;844.80;;;;;;5094831;28;20036;-65
2021/03/26 08:11:32;;;;;;;345.60;44.58;;;435.60;870.40;;;;;;5094652;28;20382;-64
2021/03/26 08:14:22;;;;;;;384.15;49.20;;;435.90;870.40;;;;;;5094543;28;20028;-72
2021/03/26 08:17:09;;;;;;;199.25;30.48;;;436.10;844.80;;;;;;5094093;28;20386;-72
2021/03/26 08:19:45;;;;;;;147.18;27.70;;;460.90;844.80;;;;;;5094720;28;20107;-70
2021/03/26 08:22:43;;;;;;;207.82;30.95;;;461.00;844.80;;;;;;5094654;28;20464;-64
2021/03/26 08:25:28;;;;;;;1153.85;126.65;;;461.20;819.20;;;;;;5032168;28;20468;-64
2021/03/26 08:28:09;;;;;;;488.95;61.83;;;461.30;819.20;;;;;;5032281;28;20036;-65
2021/03/26 08:30:45;;;;;;;409.15;57.83;;;461.50;819.20;;;;;;5031990;28;20061;-64
2021/03/26 08:33:19;;;;;;;446.48;64.70;;;461.60;793.60;;;;;;5031671;28;20021;-72
2021/03/26 08:36:07;;;;;;;247.75;41.05;;;486.40;768.00;;;;;;5031922;28;20132;-64
2021/03/26 08:38:33;;;;;;;262.98;32.75;;;486.50;768.00;;;;;;5031635;28;20052;-64
2021/03/26 08:41:01;;;;;;;1013.70;99.90;;;486.60;768.00;;;;;;5031917;28;20034;-64
2021/03/26 08:43:29;;;;;;;1893.88;218.88;;;486.70;742.40;;;;;;5031845;28;20053;-65
2021/03/26 08:46:11;;;;;;;1919.72;252.65;;;486.80;768.00;;;;;;5032097;28;20406;-65
2021/03/26 08:49:35;;;;;;;710.17;94.15;;;487.00;742.40;;;;;;5031796;28;20037;-67
2021/03/26 08:52:16;;;;;;;485.38;58.75;;;487.20;742.40;;;;;;4973053;28;20110;-68
2021/03/26 08:55:00;;;;;;;221.40;34.58;;;512.00;742.40;;;;;;4972895;28;20057;-71
2021/03/26 08:57:48;;;;;;;80.25;35.47;;;512.00;691.20;;;;;;4973053;28;20035;-70
2021/03/26 09:00:31;;;;;;;89.90;26.10;;;512.10;691.20;;;;;;4973104;28;20047;-71
2021/03/26 09:03:32;;;;;;;64.75;19.45;;;512.30;716.80;;;;;;5021364;28;20038;-64
2021/03/26 09:06:21;;;;;;;95.82;21.02;;;512.50;716.80;;;;;;5031721;28;20029;-64
2021/03/26 09:09:05;;;;;;;62.85;18.10;;;512.60;691.20;;;;;;5031365;28;20041;-70
2021/03/26 09:11:53;;;;;;;31.13;14.32;;;512.80;691.20;;;;;;5031776;28;20034;-64
2021/03/26 09:14:58;;;;;;;25.10;14.63;;;512.90;691.20;;;;;;5031226;28;20083;-64
2021/03/26 09:17:41;;;;;;;19.20;12.70;;;512.90;640.00;;;;;;5026099;28;20049;-65
2021/03/26 09:20:21;;;;;;;28.30;16.63;;;537.60;665.60;;;;;;5031704;28;20061;-64
2021/03/26 09:23:02;;;;;;;27.17;14.43;;;537.80;665.60;;;;;;5058336;28;20162;-64
2021/03/26 09:25:39;;;;;;;46.53;15.38;;;537.90;691.20;;;;;;5073548;28;20063;-65
2021/03/26 09:28:26;;;;;;;67.18;16.52;;;537.90;716.80;;;;;;5073467;28;20021;-66
2021/03/26 09:31:02;;;;;;;35.03;14.60;;;538.00;691.20;;;;;;5077634;28;20055;-64
2021/03/26 09:33:28;;;;;;;27.23;14.13;;;538.00;665.60;;;;;;5075630;28;20028;-68
2021/03/26 09:36:01;;;;;;;34.63;14.73;;;538.10;665.60;;;;;;5077028;28;20462;-64
2021/03/26 09:38:49;;;;;;;25.50;14.50;;;538.20;665.60;;;;;;5093030;28;20056;-65
2021/03/26 09:41:45;;;;;;;30.90;14.98;;;538.30;665.60;;;;;;5097526;28;20265;-64
2021/03/26 09:44:38;;;;;;;29.58;14.07;;;538.30;691.20;;;;;;5097466;28;20032;-64
2021/03/26 09:47:24;;;;;;;47.75;15.07;;;538.40;691.20;;;;;;5097455;28;20085;-65
2021/03/26 09:50:18;;;;;;;41.38;15.00;;;538.50;691.20;;;;;;5097237;28;20137;-69
2021/03/26 09:52:44;;;;;;;32.80;13.90;;;538.50;665.60;;;;;;5096996;28;20469;-68
2021/03/26 09:55:24;;;;;;;76.05;25.38;;;563.20;691.20;;;;;;5097370;28;20040;-65
2021/03/26 09:58:15;;;;;;;54.42;19.52;;;563.30;665.60;;;;;;5097056;28;20112;-64
2021/03/26 10:00:55;;;;;;;33.67;16.15;;;563.30;691.20;;;;;;5097056;28;20052;-70
2021/03/26 10:03:45;;;;;;;31.85;14.35;;;563.40;691.20;;;;;;5097160;28;20020;-66
2021/03/26 10:06:35;;;;;;;19.30;13.55;;;563.60;665.60;;;;;;5097052;28;20347;-65
2021/03/26 10:09:47;;;;;;;25.35;14.48;;;563.70;640.00;;;;;;5096747;28;20032;-70
2021/03/26 10:12:20;;;;;;;32.10;15.75;;;563.60;640.00;;;;;;5034499;28;20115;-69
2021/03/26 10:15:01;;;;;;;25.88;15.18;;;563.70;665.60;;;;;;5034392;28;20030;-64
2021/03/26 10:17:32;;;;;;;28.25;20.02;;;563.70;665.60;;;;;;5034612;28;20041;-71
2021/03/26 10:20:12;;;;;;;28.67;18.75;;;563.80;665.60;;;;;;5034487;28;20104;-64
2021/03/26 10:23:01;;;;;;;29.27;16.42;;;563.80;665.60;;;;;;5034468;28;20563;-65
2021/03/26 10:25:33;;;;;;;24.15;15.38;;;563.90;640.00;;;;;;5034372;28;20034;-64
2021/03/26 10:28:23;;;;;;;27.55;16.92;;;563.80;640.00;;;;;;5034281;28;20029;-68
2021/03/26 10:31:07;;;;;;;31.80;16.45;;;563.80;640.00;;;;;;5034361;28;20072;-64
2021/03/26 10:33:36;;;;;;;47.85;16.55;;;563.80;640.00;;;;;;5034635;28;20128;-65
2021/03/26 10:36:31;;;;;;;31.52;17.42;;;563.70;640.00;;;;;;5034217;28;20056;-70
2021/03/26 10:39:11;;;;;;;36.10;16.52;;;563.70;640.00;;;;;;4955892;29;20425;-65
2021/03/26 10:41:43;;;;;;;24.45;14.68;;;563.70;640.00;;;;;;4955657;29;20055;-64
2021/03/26 10:44:22;;;;;;;29.73;15.88;;;563.70;640.00;;;;;;4955955;29;20027;-64
2021/03/26 10:47:17;;;;;;;27.13;18.20;;;563.70;640.00;;;;;;4955815;28;20054;-66
2021/03/26 10:49:51;;;;;;;27.92;17.08;;;563.70;640.00;;;;;;5007058;28;20134;-69
2021/03/26 10:52:31;;;;;;;28.50;15.93;;;563.80;640.00;;;;;;5013674;28;20061;-64
2021/03/26 10:55:03;;;;;;;27.02;16.05;;;563.70;640.00;;;;;;5014017;28;20049;-65
2021/03/26 10:58:04;;;;;;;35.92;16.25;;;563.70;640.00;;;;;;5013851;28;20041;-64
2021/03/26 11:00:43;;;;;;;41.60;15.82;;;563.70;640.00;;;;;;4995593;28;20023;-65
2021/03/26 11:03:09;;;;;;;29.88;16.83;;;563.80;665.60;;;;;;4994323;28;20540;-64
2021/03/26 11:05:37;;;;;;;24.02;16.33;;;563.70;665.60;;;;;;4994135;28;20030;-65
2021/03/26 11:08:03;;;;;;;19.63;14.32;;;563.80;640.00;;;;;;4994279;28;20058;-65
2021/03/26 11:10:52;;;;;;;36.58;19.80;;;563.80;640.00;;;;;;4994372;28;20058;-65
2021/03/26 11:13:18;;;;;;;48.00;32.05;;;563.80;640.00;;;;;;4994896;28;20364;-65
2021/03/26 11:15:53;;;;;;;28.98;20.85;;;563.80;640.00;;;;;;5015534;28;20041;-65
2021/03/26 11:18:23;;;;;;;20.90;15.27;;;563.70;640.00;;;;;;5055242;28;20467;-64
2021/03/26 11:21:01;;;;;;;24.75;15.73;;;563.70;640.00;;;;;;5055461;28;20475;-65
2021/03/26 11:23:34;;;;;;;36.78;16.42;;;563.80;640.00;;;;;;5055251;28;20025;-64
2021/03/26 11:26:06;;;;;;;24.17;16.00;;;563.80;640.00;;;;;;5055244;28;20029;-71
2021/03/26 11:28:56;;;;;;;25.08;15.98;;;563.80;640.00;;;;;;5054960;28;20021;-64
2021/03/26 11:31:24;;;;;;;22.48;15.63;;;563.80;640.00;;;;;;5037236;28;20508;-70
2021/03/26 11:33:56;;;;;;;72.68;20.55;;;563.70;614.40;;;;;;5054996;28;20039;-68
2021/03/26 11:36:37;;;;;;;103.38;21.75;;;563.70;640.00;;;;;;5055165;28;20066;-65
2021/03/26 11:39:12;;;;;;;43.70;17.50;;;563.60;691.20;;;;;;5055063;28;20037;-66
2021/03/26 11:42:01;;;;;;;41.38;18.15;;;563.60;691.20;;;;;;5054683;28;20025;-64
2021/03/26 11:44:31;;;;;;;38.78;22.40;;;563.60;665.60;;;;;;4993438;28;20034;-70
2021/03/26 11:47:01;;;;;;;31.40;18.27;;;563.70;665.60;;;;;;4993797;28;20049;-67
2021/03/26 11:49:32;;;;;;;62.55;36.08;;;563.70;665.60;;;;;;4993308;28;20034;-66
2021/03/26 11:52:17;;;;;;;44.22;21.48;;;563.70;665.60;;;;;;4992261;28;20052;-67
2021/03/26 11:55:07;;;;;;;20.20;16.15;;;563.70;665.60;;;;;;4993298;28;20596;-64
2021/03/26 11:58:04;;;;;;;35.00;17.05;;;563.90;640.00;;;;;;4993210;28;20027;-69
2021/03/26 12:00:33;;;;;;;21.13;15.48;;;563.90;665.60;;;;;;4993306;28;20057;-71
2021/03/26 12:03:23;;;;;;;51.38;17.65;;;563.90;640.00;;;;;;4993406;28;20034;-65
2021/03/26 12:06:30;;;;;;;37.13;18.05;;;563.90;665.60;;;;;;4993255;28;20022;-65
2021/03/26 12:09:22;;;;;;;31.00;17.52;;;563.90;640.00;;;;;;4935140;29;20063;-70
2021/03/26 12:11:53;;;;;;;19.95;15.15;;;564.00;614.40;;;;;;4935208;29;20438;-64
2021/03/26 12:14:30;;;;;;;65.75;20.55;;;563.90;614.40;;;;;;4935018;29;20055;-67
2021/03/26 12:17:07;;;;;;;50.17;17.88;;;563.80;640.00;;;;;;4934971;29;20066;-68
2021/03/26 12:19:36;;;;;;;37.65;16.55;;;563.80;640.00;;;;;;4934911;28;20537;-65
2021/03/26 12:22:08;;;;;;;89.15;19.38;;;563.80;665.60;;;;;;4963873;28;20038;-70
2021/03/26 12:24:43;;;;;;;39.70;18.70;;;563.70;665.60;;;;;;4973283;28;20127;-71
2021/03/26 12:27:14;;;;;;;151.95;26.65;;;563.70;640.00;;;;;;4973249;28;20126;-64
2021/03/26 12:30:02;;;;;;;132.73;25.38;;;563.60;640.00;;;;;;4973256;28;20031;-66
2021/03/26 12:32:42;;;;;;;47.60;17.88;;;563.50;665.60;;;;;;4973210;28;20039;-72
2021/03/26 12:35:19;;;;;;;32.00;16.50;;;563.40;665.60;;;;;;4973161;28;20205;-72
2021/03/26 12:37:50;;;;;;;26.17;15.13;;;563.40;665.60;;;;;;4972644;28;20047;-71
2021/03/26 12:40:21;;;;;;;25.35;15.45;;;563.40;665.60;;;;;;4973352;28;20031;-69
2021/03/26 12:42:53;;;;;;;31.73;15.32;;;563.40;665.60;;;;;;4973104;28;20023;-72
2021/03/26 12:45:22;;;;;;;20.83;14.25;;;563.40;665.60;;;;;;4993467;28;20041;-64
2021/03/26 12:48:15;;;;;;;24.90;14.63;;;563.40;665.60;;;;;;5053295;28;20021;-67
2021/03/26 12:50:54;;;;;;;27.17;14.23;;;563.40;665.60;;;;;;5053688;28;20467;-65
2021/03/26 12:53:30;;;;;;;27.77;14.77;;;563.20;665.60;;;;;;5054110;28;20108;-71
2021/03/26 12:56:13;;;;;;;26.02;14.38;;;563.20;640.00;;;;;;5053694;28;20071;-71